createdAt,value
2022-11-28T00:02:04.084Z,1.8
2022-11-28T00:07:03.444Z,1.2
2022-11-28T00:07:42.000Z,1.2
2022-11-28T00:12:02.762Z,1.4
2022-11-28T00:17:02.175Z,1.3
2022-11-28T00:20:44.614Z,1.3
2022-11-28T00:27:05.156Z,1.7
2022-11-28T00:32:00.391Z,1.1
2022-11-28T00:36:59.753Z,1.5
2022-11-28T00:41:59.115Z,0.7
2022-11-28T00:42:26.307Z,0.7
2022-11-28T00:46:59.971Z,1.8
2022-11-28T00:51:57.916Z,1.3
2022-11-28T00:56:57.264Z,0.5
2022-11-28T01:01:56.774Z,2.4
2022-11-28T01:06:56.012Z,1.0
2022-11-28T01:11:55.365Z,0.7
2022-11-28T01:21:55.182Z,1.0
2022-11-28T01:27:04.126Z,1.4
2022-11-28T01:31:53.126Z,1.1
2022-11-28T01:36:52.390Z,1.5
2022-11-28T01:41:51.870Z,1.0
2022-11-28T01:46:51.217Z,1.7
2022-11-28T01:51:50.646Z,1.9
2022-11-28T01:56:51.134Z,1.1
2022-11-28T02:01:50.873Z,1.7
2022-11-28T02:06:49.039Z,0.5
2022-11-28T02:11:48.362Z,1.3
2022-11-28T02:16:47.785Z,0.6
2022-11-28T02:21:47.139Z,0.9
2022-11-28T02:26:46.630Z,1.1
2022-11-28T02:31:46.072Z,0.8
2022-11-28T02:36:45.452Z,0.9
2022-11-28T02:41:44.793Z,0.5
2022-11-28T02:46:45.545Z,1.0
2022-11-28T02:51:43.586Z,0.9
2022-11-28T02:52:24.743Z,0.9
2022-11-28T02:56:46.354Z,1.2
2022-11-28T03:01:42.449Z,0.8
2022-11-28T03:03:00.075Z,0.8
2022-11-28T03:06:41.809Z,1.4
2022-11-28T03:11:41.260Z,0.7
2022-11-28T03:16:40.713Z,0.8
2022-11-28T03:21:41.637Z,1.4
2022-11-28T03:26:39.584Z,0.9
2022-11-28T03:31:39.095Z,0.7
2022-11-28T03:41:38.096Z,1.8
2022-11-28T03:46:37.475Z,0.9
2022-11-28T03:50:24.036Z,0.9
2022-11-28T03:51:38.066Z,0.6
2022-11-28T03:56:36.225Z,0.9
2022-11-28T04:01:35.643Z,0.6
2022-11-28T04:02:19.218Z,0.6
2022-11-28T04:06:35.018Z,1.1
2022-11-28T04:11:38.710Z,1.3
2022-11-28T04:16:36.470Z,1.0
2022-11-28T04:21:35.323Z,0.8
2022-11-28T04:26:32.713Z,0.7
2022-11-28T04:31:32.240Z,0.5
2022-11-28T04:36:42.107Z,0.6
2022-11-28T04:51:29.826Z,0.8
2022-11-28T05:01:28.746Z,0.4
2022-11-28T05:06:27.975Z,0.9
2022-11-28T05:11:28.644Z,0.7
2022-11-28T05:16:26.819Z,0.8
2022-11-28T05:21:26.236Z,0.7
2022-11-28T05:26:25.617Z,0.6
2022-11-28T05:31:24.979Z,0.8
2022-11-28T05:36:24.326Z,0.7
2022-11-28T05:41:23.751Z,1.6
2022-11-28T05:46:23.185Z,0.7
2022-11-28T05:49:01.730Z,0.7
2022-11-28T05:56:21.988Z,0.9
2022-11-28T06:11:20.246Z,1.2
2022-11-28T06:12:57.522Z,1.2
2022-11-28T06:16:19.757Z,0.7
2022-11-28T06:21:13.797Z,0.7
2022-11-28T06:26:18.607Z,0.6
2022-11-28T06:36:17.518Z,1.0
2022-11-28T06:41:16.891Z,0.8
2022-11-28T06:46:16.293Z,0.8
2022-11-28T06:46:17.006Z,0.5
2022-11-28T06:51:15.827Z,1.0
2022-11-28T06:56:15.189Z,0.6
2022-11-28T06:57:32.459Z,0.6
2022-11-28T07:01:14.721Z,0.7
2022-11-28T07:06:14.142Z,0.4
2022-11-28T07:10:57.196Z,0.4
2022-11-28T07:11:13.529Z,0.5
2022-11-28T07:21:12.525Z,0.4
2022-11-28T07:24:27.988Z,0.4
2022-11-28T07:25:07.960Z,0.4
2022-11-28T07:26:13.351Z,0.8
2022-11-28T07:33:42.709Z,0.8
2022-11-28T07:36:11.648Z,0.6
2022-11-28T07:36:53.553Z,0.6
2022-11-28T07:41:27.217Z,1.0
2022-11-28T07:46:09.411Z,0.8
2022-11-28T07:51:08.832Z,0.9
2022-11-28T07:56:08.241Z,0.7
2022-11-28T08:01:09.069Z,0.6
2022-11-28T08:06:07.033Z,0.5
2022-11-28T08:11:16.741Z,0.8
2022-11-28T08:14:34.291Z,0.8
2022-11-28T08:16:05.845Z,0.5
2022-11-28T08:18:37.379Z,0.5
2022-11-28T08:21:05.249Z,0.6
2022-11-28T08:26:04.809Z,0.8
2022-11-28T08:31:05.475Z,0.7
2022-11-28T08:36:03.576Z,1.0
2022-11-28T08:41:03.033Z,0.8
2022-11-28T08:46:03.888Z,0.7
2022-11-28T08:49:36.184Z,0.7
2022-11-28T08:56:05.630Z,1.0
2022-11-28T09:01:01.939Z,0.6
2022-11-28T09:03:03.790Z,0.6
2022-11-28T09:05:59.925Z,1.1
2022-11-28T09:10:59.409Z,1.0
2022-11-28T09:16:02.779Z,0.5
2022-11-28T09:20:59.467Z,0.8
2022-11-28T09:25:57.509Z,0.9
2022-11-28T09:30:58.176Z,0.7
2022-11-28T09:35:56.178Z,0.9
2022-11-28T09:40:55.610Z,0.7
2022-11-28T09:50:54.345Z,1.2
2022-11-28T09:55:54.832Z,1.0
2022-11-28T10:05:53.666Z,0.5
2022-11-28T10:06:20.787Z,0.5
2022-11-28T10:10:51.901Z,0.6
2022-11-28T10:12:29.886Z,0.6
2022-11-28T10:15:51.257Z,0.7
2022-11-28T10:20:50.676Z,0.9
2022-11-28T10:25:51.514Z,0.7
2022-11-28T10:30:49.485Z,0.8
2022-11-28T10:35:49.685Z,1.0
2022-11-28T10:40:48.266Z,1.4
2022-11-28T10:45:47.899Z,0.8
2022-11-28T10:50:48.319Z,0.9
2022-11-28T10:55:46.780Z,0.6
2022-11-28T11:00:51.413Z,0.7
2022-11-28T11:04:33.781Z,0.7
2022-11-28T11:05:45.507Z,0.6
2022-11-28T11:10:45.024Z,0.5
2022-11-28T11:15:46.955Z,0.6
2022-11-28T11:18:22.397Z,0.6
2022-11-28T11:20:43.841Z,1.6
2022-11-28T11:25:43.382Z,0.6
2022-11-28T11:30:42.968Z,0.4
2022-11-28T11:31:01.548Z,0.4
2022-11-28T11:35:42.312Z,0.6
2022-11-28T11:40:41.879Z,0.7
2022-11-28T11:45:41.400Z,1.1
2022-11-28T11:50:45.433Z,0.6
2022-11-28T11:55:41.649Z,1.1
2022-11-28T11:57:56.049Z,1.1
2022-11-28T12:01:39.393Z,2.0
2022-11-28T12:06:06.066Z,1.0
2022-11-28T12:06:43.866Z,1.0
2022-11-28T12:07:48.981Z,1.0
2022-11-28T12:15:39.750Z,0.7
2022-11-28T12:19:11.370Z,0.7
2022-11-28T12:20:39.078Z,0.5
2022-11-28T12:25:38.808Z,1.2
2022-11-28T12:35:38.378Z,1.5
2022-11-28T12:37:54.737Z,1.5
2022-11-28T12:40:39.513Z,0.7
2022-11-28T12:45:39.253Z,1.2
2022-11-28T12:50:39.105Z,0.6
2022-11-28T12:55:38.460Z,0.8
2022-11-28T13:00:37.301Z,0.9
2022-11-28T13:02:44.733Z,0.9
2022-11-28T13:10:37.006Z,1.1
2022-11-28T13:15:36.809Z,0.7
2022-11-28T13:20:36.624Z,1.4
2022-11-28T13:25:36.479Z,0.9
2022-11-28T13:30:37.544Z,1.1
2022-11-28T13:35:37.719Z,0.8
2022-11-28T13:39:12.494Z,0.8
2022-11-28T13:40:41.171Z,1.3
2022-11-28T13:43:11.363Z,1.3
2022-11-28T13:45:35.594Z,0.8
2022-11-28T13:46:56.733Z,0.8
2022-11-28T13:52:34.938Z,0.8
2022-11-28T13:55:35.120Z,1.3
2022-11-28T14:00:38.669Z,0.8
2022-11-28T14:05:04.143Z,0.8
2022-11-28T14:10:34.247Z,0.9
2022-11-28T14:15:35.335Z,0.7
2022-11-28T14:18:56.626Z,0.7
2022-11-28T14:20:33.542Z,1.0
2022-11-28T14:25:33.303Z,0.7
2022-11-28T14:30:51.740Z,0.8
2022-11-28T14:35:33.888Z,1.5
2022-11-28T14:40:32.351Z,1.0
2022-11-28T14:45:31.850Z,1.3
2022-11-28T14:50:31.537Z,1.2
2022-11-28T14:55:57.816Z,1.1
2022-11-28T15:00:30.828Z,0.7
2022-11-28T15:05:30.480Z,1.5
2022-11-28T15:09:33.224Z,1.5
2022-11-28T15:10:30.420Z,0.5
2022-11-28T15:15:31.104Z,0.9
2022-11-28T15:19:31.688Z,0.9
2022-11-28T15:20:29.308Z,1.0
2022-11-28T15:25:30.272Z,2.2
2022-11-28T15:30:28.570Z,2.3
2022-11-28T15:34:23.331Z,2.3
2022-11-28T15:35:28.221Z,2.2
2022-11-28T15:40:29.129Z,2.8
2022-11-28T15:45:27.459Z,5.0
2022-11-28T15:50:27.144Z,5.6
2022-11-28T15:55:26.766Z,5.0
2022-11-28T16:00:26.445Z,4.9
2022-11-28T16:05:25.980Z,4.6
2022-11-28T16:10:25.571Z,3.8
2022-11-28T16:10:59.463Z,3.8
2022-11-28T16:15:26.231Z,2.7
2022-11-28T16:20:14.185Z,2.7
2022-11-28T16:20:24.502Z,2.3
2022-11-28T16:25:24.306Z,1.7
2022-11-28T16:30:28.260Z,2.4
2022-11-28T16:35:23.392Z,3.6
2022-11-28T16:40:27.394Z,4.4
2022-11-28T16:43:47.641Z,4.4
2022-11-28T16:45:22.504Z,2.8
2022-11-28T16:50:22.101Z,2.4
2022-11-28T16:54:16.779Z,2.4
2022-11-28T17:00:23.618Z,2.5
2022-11-28T17:07:41.449Z,2.5
2022-11-28T17:08:30.210Z,2.5
2022-11-28T17:10:20.085Z,1.9
2022-11-28T17:20:19.478Z,2.7
2022-11-28T17:25:29.067Z,3.5
2022-11-28T17:30:17.940Z,3.6
2022-11-28T17:35:23.876Z,2.8
2022-11-28T17:38:32.825Z,2.8
2022-11-28T17:40:18.321Z,3.0
2022-11-28T17:41:16.713Z,3.0
2022-11-28T17:45:17.743Z,2.5
2022-11-28T17:50:16.031Z,3.0
2022-11-28T17:55:15.408Z,3.3
2022-11-28T18:00:14.897Z,3.4
2022-11-28T18:05:14.360Z,2.5
2022-11-28T18:10:13.845Z,2.4
2022-11-28T18:15:13.269Z,2.9
2022-11-28T18:20:12.744Z,2.8
2022-11-28T18:25:12.103Z,3.0
2022-11-28T18:30:11.542Z,3.3
2022-11-28T18:35:10.953Z,3.9
2022-11-28T18:40:10.412Z,3.3
2022-11-28T18:45:09.930Z,3.0
2022-11-28T18:50:11.205Z,3.6
2022-11-28T18:55:12.871Z,4.8
2022-11-28T19:00:08.169Z,3.2
2022-11-28T19:05:07.646Z,3.3
2022-11-28T19:07:51.886Z,3.3
2022-11-28T19:10:07.149Z,2.9
2022-11-28T19:15:08.637Z,3.0
2022-11-28T19:20:06.129Z,3.5
2022-11-28T19:22:03.894Z,3.5
2022-11-28T19:30:08.309Z,2.4
2022-11-28T19:32:57.644Z,2.4
2022-11-28T19:35:10.955Z,3.3
2022-11-28T19:40:04.075Z,2.9
2022-11-28T19:45:04.453Z,3.1
2022-11-28T19:50:03.048Z,3.4
2022-11-28T19:55:02.540Z,3.6
2022-11-28T20:00:01.978Z,3.4
2022-11-28T20:05:01.536Z,2.8
2022-11-28T20:10:07.564Z,3.3
2022-11-28T20:11:32.645Z,3.3
2022-11-28T20:12:54.102Z,3.3
2022-11-28T20:14:00.404Z,3.3
2022-11-28T20:15:00.294Z,2.7
2022-11-28T20:17:11.654Z,2.7
2022-11-28T20:17:39.898Z,2.7
2022-11-28T20:18:21.692Z,2.7
2022-11-28T20:20:01.142Z,2.6
2022-11-28T20:25:03.602Z,3.6
2022-11-28T20:25:39.240Z,3.6
2022-11-28T20:32:13.950Z,3.6
2022-11-28T20:41:34.848Z,4.9
2022-11-28T20:43:27.550Z,4.9
2022-11-28T20:44:57.003Z,5.5
2022-11-28T20:49:56.426Z,6.0
2022-11-28T20:54:55.918Z,3.7
2022-11-28T20:59:59.749Z,5.1
2022-11-28T21:09:01.538Z,4.2
2022-11-28T21:14:04.322Z,4.2
2022-11-28T21:14:55.820Z,3.7
2022-11-28T21:18:30.702Z,3.7
2022-11-28T21:21:54.110Z,3.5
2022-11-28T21:22:54.625Z,3.5
2022-11-28T21:23:40.590Z,3.5
2022-11-28T21:24:52.353Z,3.4
2022-11-28T21:30:25.732Z,3.9
2022-11-28T21:34:53.408Z,2.8
2022-11-28T21:39:50.542Z,2.6
2022-11-28T21:43:26.075Z,2.6
2022-11-28T21:54:48.639Z,2.2
2022-11-28T21:59:47.938Z,2.3
2022-11-28T22:03:51.529Z,2.3
2022-11-28T22:04:47.449Z,2.1
2022-11-28T22:09:51.035Z,1.9
2022-11-28T22:12:06.456Z,1.9
2022-11-28T22:13:40.966Z,1.9
2022-11-28T22:14:49.795Z,2.2
2022-11-28T22:18:34.140Z,2.2
2022-11-28T22:27:51.643Z,2.0
2022-11-28T22:28:55.131Z,2.0
2022-11-28T22:30:37.175Z,2.4
2022-11-28T22:31:12.233Z,2.4
2022-11-28T22:34:43.858Z,2.8
2022-11-28T22:39:45.593Z,2.5
2022-11-28T22:44:48.476Z,1.9
2022-11-28T22:49:41.786Z,2.0
2022-11-28T22:54:41.276Z,3.3
2022-11-28T22:59:40.522Z,3.0
2022-11-28T23:04:39.855Z,2.1
2022-11-28T23:09:39.216Z,2.6
2022-11-28T23:14:38.530Z,2.3
2022-11-28T23:19:31.033Z,2.3
2022-11-28T23:19:37.671Z,1.7
2022-11-28T23:37:42.206Z,2.6
2022-11-28T23:38:43.819Z,2.6
2022-11-28T23:39:13.453Z,2.6
2022-11-28T23:40:25.558Z,2.8
2022-11-28T23:41:22.146Z,2.8
2022-11-28T23:44:39.104Z,1.5
2022-11-28T23:49:34.014Z,1.6
2022-11-28T23:54:21.050Z,1.6
2022-11-28T23:54:55.600Z,2.4
